createdAt,value
2017-09-05T00:00:43.927Z,0
2017-09-05T00:01:45.319Z,0
2017-09-05T00:02:46.713Z,0
2017-09-05T00:03:48.103Z,0
2017-09-05T00:04:49.495Z,0
2017-09-05T00:05:50.887Z,0
2017-09-05T00:06:52.279Z,0
2017-09-05T00:07:53.665Z,0
2017-09-05T00:08:55.064Z,0
2017-09-05T00:09:56.464Z,0
2017-09-05T00:10:57.859Z,0
2017-09-05T00:11:59.250Z,0
2017-09-05T00:13:00.642Z,0
2017-09-05T00:14:02.035Z,0
2017-09-05T00:15:03.428Z,0
2017-09-05T00:16:04.820Z,0
2017-09-05T00:17:06.214Z,0
2017-09-05T00:18:07.605Z,0
2017-09-05T00:19:08.997Z,0
2017-09-05T00:20:10.389Z,0
2017-09-05T00:21:11.780Z,0
2017-09-05T00:22:13.170Z,0
2017-09-05T00:23:14.565Z,0
2017-09-05T00:24:15.960Z,0
2017-09-05T00:25:17.351Z,0
2017-09-05T00:26:18.739Z,0
2017-09-05T00:27:20.128Z,0
2017-09-05T00:28:21.520Z,0
2017-09-05T00:29:22.912Z,0
2017-09-05T00:30:24.306Z,0
2017-09-05T00:31:25.702Z,0
2017-09-05T00:32:27.094Z,0
2017-09-05T00:33:28.481Z,0
2017-09-05T00:34:29.871Z,0
2017-09-05T00:35:31.265Z,0
2017-09-05T00:36:32.660Z,0
2017-09-05T00:37:34.095Z,0
2017-09-05T00:38:35.491Z,0
2017-09-05T00:39:36.882Z,0
2017-09-05T00:40:38.269Z,0
2017-09-05T00:41:39.663Z,0
2017-09-05T00:42:41.062Z,0
2017-09-05T00:43:42.449Z,0
2017-09-05T00:44:43.837Z,0
2017-09-05T00:45:45.229Z,0
2017-09-05T00:46:46.624Z,0
2017-09-05T00:47:48.014Z,0
2017-09-05T00:48:49.405Z,0
2017-09-05T00:49:50.805Z,0
2017-09-05T00:50:52.196Z,0
2017-09-05T00:51:53.592Z,0
2017-09-05T00:52:54.983Z,0
2017-09-05T00:53:56.375Z,0
2017-09-05T00:54:57.769Z,0
2017-09-05T00:55:59.159Z,0
2017-09-05T00:57:00.552Z,0
2017-09-05T00:58:01.973Z,0
2017-09-05T00:59:03.343Z,0
2017-09-05T01:00:04.731Z,0
2017-09-05T01:01:06.119Z,0
2017-09-05T01:02:07.512Z,0
2017-09-05T01:03:08.913Z,0
2017-09-05T01:04:10.306Z,0
2017-09-05T01:05:11.698Z,0
2017-09-05T01:06:13.096Z,0
2017-09-05T01:07:14.488Z,0
2017-09-05T01:08:15.844Z,0
2017-09-05T01:09:17.232Z,0
2017-09-05T01:10:18.623Z,0
2017-09-05T01:11:20.016Z,0
2017-09-05T01:12:21.406Z,0
2017-09-05T01:13:22.802Z,0
2017-09-05T01:14:24.194Z,0
2017-09-05T01:15:25.585Z,0
2017-09-05T01:16:26.978Z,0
2017-09-05T01:17:28.365Z,0
2017-09-05T01:18:29.763Z,0
2017-09-05T01:19:31.151Z,0
2017-09-05T01:20:32.545Z,0
2017-09-05T01:21:33.940Z,0
2017-09-05T01:22:35.328Z,0
2017-09-05T01:23:36.721Z,0
2017-09-05T01:24:38.111Z,0
2017-09-05T01:25:39.503Z,0
2017-09-05T01:26:40.893Z,0
2017-09-05T01:27:42.289Z,0
2017-09-05T01:28:43.683Z,0
2017-09-05T01:29:45.074Z,0
2017-09-05T01:30:46.466Z,0
2017-09-05T01:31:47.857Z,0
2017-09-05T01:32:49.252Z,0
2017-09-05T01:33:50.646Z,0
2017-09-05T01:34:52.038Z,0
2017-09-05T01:35:53.427Z,0
2017-09-05T01:36:54.820Z,0
2017-09-05T01:37:56.211Z,0
2017-09-05T01:38:57.602Z,0
2017-09-05T01:39:58.993Z,0
2017-09-05T01:41:00.394Z,0
2017-09-05T01:42:01.779Z,0
2017-09-05T01:43:03.174Z,0
2017-09-05T01:44:04.563Z,0
2017-09-05T01:45:05.956Z,0
2017-09-05T01:46:07.349Z,0
2017-09-05T01:47:08.741Z,0
2017-09-05T01:48:10.135Z,0
2017-09-05T01:49:11.530Z,0
2017-09-05T01:50:12.925Z,0
2017-09-05T01:51:14.315Z,0
2017-09-05T01:52:15.707Z,0
2017-09-05T01:53:17.099Z,0
2017-09-05T01:54:18.506Z,0
2017-09-05T01:55:19.902Z,0
2017-09-05T01:56:21.293Z,0
2017-09-05T01:57:22.688Z,0
2017-09-05T01:58:24.084Z,0
2017-09-05T01:59:25.473Z,0
2017-09-05T02:00:26.866Z,0
2017-09-05T02:01:28.258Z,0
2017-09-05T02:02:29.653Z,0
2017-09-05T02:03:31.048Z,0
2017-09-05T02:04:32.438Z,0
2017-09-05T02:05:33.829Z,0
2017-09-05T02:06:35.219Z,0
2017-09-05T02:07:36.613Z,0
2017-09-05T02:08:38.006Z,0
2017-09-05T02:09:39.397Z,0
2017-09-05T02:10:40.789Z,0
2017-09-05T02:11:42.183Z,0
2017-09-05T02:12:43.573Z,0
2017-09-05T02:13:44.964Z,0
2017-09-05T02:14:46.357Z,0
2017-09-05T02:15:47.748Z,0
2017-09-05T02:16:49.144Z,0
2017-09-05T02:17:50.540Z,0
2017-09-05T02:18:51.965Z,0
2017-09-05T02:19:53.322Z,0
2017-09-05T02:20:54.713Z,0
2017-09-05T02:21:56.105Z,0
2017-09-05T02:22:57.498Z,0
2017-09-05T02:23:58.892Z,0
2017-09-05T02:25:00.310Z,0
2017-09-05T02:26:01.708Z,0
2017-09-05T02:27:03.093Z,0
2017-09-05T02:28:04.488Z,0
2017-09-05T02:29:05.880Z,0
2017-09-05T02:30:07.272Z,0
2017-09-05T02:31:08.665Z,0
2017-09-05T02:32:10.057Z,0
2017-09-05T02:33:11.451Z,0
2017-09-05T02:34:12.842Z,0
2017-09-05T02:35:14.234Z,0
2017-09-05T02:36:15.622Z,0
2017-09-05T02:37:17.014Z,0
2017-09-05T02:38:18.409Z,0
2017-09-05T02:39:19.804Z,0
2017-09-05T02:40:21.203Z,0
2017-09-05T02:41:22.588Z,0
2017-09-05T02:42:23.975Z,0
2017-09-05T02:43:25.370Z,0
2017-09-05T02:44:26.762Z,0
2017-09-05T02:45:28.155Z,0
2017-09-05T02:46:29.548Z,0
2017-09-05T02:47:30.940Z,0
2017-09-05T02:48:32.334Z,0
2017-09-05T02:49:33.721Z,0
2017-09-05T02:50:35.109Z,0
2017-09-05T02:51:36.500Z,0
2017-09-05T02:52:37.893Z,0
2017-09-05T02:53:39.287Z,0
2017-09-05T02:54:40.678Z,0
2017-09-05T02:55:42.072Z,0
2017-09-05T02:56:43.464Z,0
2017-09-05T02:57:44.855Z,0
2017-09-05T02:58:46.252Z,0
2017-09-05T02:59:47.649Z,0
2017-09-05T03:00:49.036Z,0
2017-09-05T03:01:50.430Z,0
2017-09-05T03:02:51.821Z,0
2017-09-05T03:03:53.212Z,0
2017-09-05T03:04:54.603Z,0
2017-09-05T03:05:55.999Z,0
2017-09-05T03:06:57.388Z,0
2017-09-05T03:07:58.781Z,0
2017-09-05T03:09:00.178Z,0
2017-09-05T03:10:01.563Z,0
2017-09-05T03:11:02.957Z,0
2017-09-05T03:12:04.347Z,0
2017-09-05T03:13:05.739Z,0
2017-09-05T03:14:07.129Z,0
2017-09-05T03:15:08.523Z,0
2017-09-05T03:16:09.915Z,0
2017-09-05T03:17:11.304Z,0
2017-09-05T03:18:12.693Z,0
2017-09-05T03:19:14.089Z,0
2017-09-05T03:20:15.482Z,0
2017-09-05T03:21:16.874Z,0
2017-09-05T03:22:18.268Z,0
2017-09-05T03:23:19.658Z,0
2017-09-05T03:24:21.053Z,0
2017-09-05T03:25:22.447Z,0
2017-09-05T03:26:23.833Z,0
2017-09-05T03:27:25.224Z,0
2017-09-05T03:28:26.619Z,0
2017-09-05T03:29:28.013Z,0
2017-09-05T03:30:29.405Z,0
2017-09-05T03:31:30.795Z,0
2017-09-05T03:32:32.187Z,0
2017-09-05T03:33:33.578Z,0
2017-09-05T03:34:34.969Z,0
2017-09-05T03:35:36.360Z,0
2017-09-05T03:36:37.755Z,0
2017-09-05T03:37:39.165Z,0
2017-09-05T03:38:40.564Z,0
2017-09-05T03:39:41.955Z,0
2017-09-05T03:40:43.348Z,0
2017-09-05T03:41:44.737Z,0
2017-09-05T03:42:46.127Z,0
2017-09-05T03:43:47.521Z,0
2017-09-05T03:44:48.915Z,0
2017-09-05T03:45:50.308Z,0
2017-09-05T03:46:51.698Z,0
2017-09-05T03:47:53.088Z,0
2017-09-05T03:48:54.481Z,0
2017-09-05T03:49:55.876Z,0
2017-09-05T03:50:57.269Z,0
2017-09-05T03:51:58.661Z,0
2017-09-05T03:53:00.053Z,0
2017-09-05T03:54:01.439Z,0
2017-09-05T03:55:02.854Z,0
2017-09-05T03:56:04.248Z,0
2017-09-05T03:57:05.644Z,0
2017-09-05T03:58:07.036Z,0
2017-09-05T03:59:08.431Z,0
2017-09-05T04:00:09.822Z,0
2017-09-05T04:01:11.213Z,0
2017-09-05T04:02:12.605Z,0
2017-09-05T04:03:13.997Z,0
2017-09-05T04:04:15.390Z,0
2017-09-05T04:05:16.784Z,0
2017-09-05T04:06:18.176Z,0
2017-09-05T04:07:19.567Z,0
2017-09-05T04:08:20.958Z,0
2017-09-05T04:09:22.349Z,0
2017-09-05T04:10:23.741Z,0
2017-09-05T04:11:25.133Z,0
2017-09-05T04:12:26.553Z,0
2017-09-05T04:13:27.949Z,0
2017-09-05T04:14:29.357Z,0
2017-09-05T04:15:30.744Z,0
2017-09-05T04:16:32.143Z,0
2017-09-05T04:17:33.534Z,0
2017-09-05T04:18:34.929Z,0
2017-09-05T04:19:36.319Z,0
2017-09-05T04:20:37.714Z,0
2017-09-05T04:21:39.106Z,0
2017-09-05T04:22:40.493Z,0
2017-09-05T04:23:41.886Z,0
2017-09-05T04:24:43.279Z,0
2017-09-05T04:25:44.676Z,0
2017-09-05T04:26:46.064Z,0
2017-09-05T04:27:47.457Z,0
2017-09-05T04:28:48.851Z,0
2017-09-05T04:29:50.245Z,0
2017-09-05T04:30:51.638Z,0
2017-09-05T04:31:53.031Z,0
2017-09-05T04:32:54.430Z,0
2017-09-05T04:33:55.823Z,4
2017-09-05T04:34:57.215Z,4
2017-09-05T04:35:58.614Z,0
2017-09-05T04:37:00.009Z,0
2017-09-05T04:38:01.398Z,0
2017-09-05T04:39:02.792Z,4
2017-09-05T04:40:04.186Z,0
2017-09-05T04:41:05.584Z,4
2017-09-05T04:42:06.970Z,8
2017-09-05T04:43:08.370Z,4
2017-09-05T04:44:09.763Z,4
2017-09-05T04:45:11.151Z,8
2017-09-05T04:46:12.550Z,8
2017-09-05T04:47:13.946Z,8
2017-09-05T04:48:15.340Z,12
2017-09-05T04:49:16.732Z,8
2017-09-05T04:50:18.287Z,12
2017-09-05T04:51:19.867Z,12
2017-09-05T04:52:21.262Z,16
2017-09-05T04:53:22.656Z,20
2017-09-05T04:54:24.049Z,24
2017-09-05T04:55:25.443Z,24
2017-09-05T04:56:26.836Z,28
2017-09-05T04:57:28.229Z,32
2017-09-05T04:58:29.621Z,32
2017-09-05T04:59:31.014Z,36
2017-09-05T05:00:32.409Z,36
2017-09-05T05:01:33.802Z,36
2017-09-05T05:02:35.197Z,40
2017-09-05T05:03:36.593Z,44
2017-09-05T05:04:37.985Z,48
2017-09-05T05:05:39.378Z,68
2017-09-05T05:06:40.770Z,84
2017-09-05T05:07:42.164Z,96
2017-09-05T05:08:43.561Z,100
2017-09-05T05:09:44.958Z,100
2017-09-05T05:10:46.352Z,100
2017-09-05T05:11:47.745Z,96
2017-09-05T05:12:49.135Z,92
2017-09-05T05:13:50.532Z,100
2017-09-05T05:14:51.926Z,108
2017-09-05T05:15:53.321Z,116
2017-09-05T05:16:54.717Z,124
2017-09-05T05:17:56.111Z,132
2017-09-05T05:18:57.505Z,144
2017-09-05T05:19:58.899Z,164
2017-09-05T05:21:00.298Z,176
2017-09-05T05:22:01.690Z,192
2017-09-05T05:23:03.089Z,204
2017-09-05T05:24:04.484Z,216
2017-09-05T05:25:05.882Z,228
2017-09-05T05:26:07.274Z,240
2017-09-05T05:27:08.667Z,236
2017-09-05T05:28:10.061Z,240
2017-09-05T05:29:11.459Z,252
2017-09-05T05:30:12.853Z,276
2017-09-05T05:31:14.248Z,292
2017-09-05T05:32:15.646Z,304
2017-09-05T05:33:17.041Z,316
2017-09-05T05:34:18.436Z,328
2017-09-05T05:35:19.832Z,340
2017-09-05T05:36:21.229Z,360
2017-09-05T05:37:22.623Z,372
2017-09-05T05:38:24.029Z,400
2017-09-05T05:39:25.420Z,420
2017-09-05T05:40:26.816Z,436
2017-09-05T05:41:28.212Z,444
2017-09-05T05:42:29.605Z,456
2017-09-05T05:43:31.001Z,464
2017-09-05T05:44:32.399Z,484
2017-09-05T05:45:33.795Z,504
2017-09-05T05:46:35.193Z,520
2017-09-05T05:47:36.590Z,540
2017-09-05T05:48:37.989Z,564
2017-09-05T05:49:39.385Z,600
2017-09-05T05:50:40.791Z,636
2017-09-05T05:51:42.178Z,664
2017-09-05T05:52:43.574Z,688
2017-09-05T05:53:44.968Z,712
2017-09-05T05:54:46.361Z,724
2017-09-05T05:55:47.760Z,732
2017-09-05T05:56:49.153Z,756
2017-09-05T05:57:50.549Z,768
2017-09-05T05:58:51.947Z,780
2017-09-05T05:59:53.370Z,800
2017-09-05T06:00:54.765Z,832
2017-09-05T06:01:56.163Z,848
2017-09-05T06:02:57.565Z,880
2017-09-05T06:03:58.950Z,916
2017-09-05T06:05:00.380Z,932
2017-09-05T06:06:01.773Z,940
2017-09-05T06:07:03.170Z,948
2017-09-05T06:08:04.567Z,952
2017-09-05T06:09:05.963Z,924
2017-09-05T06:10:07.358Z,892
2017-09-05T06:11:08.753Z,876
2017-09-05T06:12:10.152Z,876
2017-09-05T06:13:11.555Z,896
2017-09-05T06:14:12.953Z,916
2017-09-05T06:15:14.346Z,924
2017-09-05T06:16:15.740Z,928
2017-09-05T06:17:17.134Z,928
2017-09-05T06:18:18.528Z,948
2017-09-05T06:19:19.926Z,972
2017-09-05T06:20:21.322Z,988
2017-09-05T06:21:22.718Z,996
2017-09-05T06:22:24.117Z,1016
2017-09-05T06:23:25.518Z,1060
2017-09-05T06:24:26.911Z,1096
2017-09-05T06:25:28.322Z,1132
2017-09-05T06:26:29.718Z,1164
2017-09-05T06:27:31.112Z,1184
2017-09-05T06:28:32.512Z,1208
2017-09-05T06:29:33.910Z,1240
2017-09-05T06:30:35.304Z,1292
2017-09-05T06:31:36.701Z,1316
2017-09-05T06:32:38.098Z,1352
2017-09-05T06:33:39.494Z,1396
2017-09-05T06:34:40.893Z,1444
2017-09-05T06:35:42.292Z,1484
2017-09-05T06:36:43.687Z,1512
2017-09-05T06:37:45.082Z,1520
2017-09-05T06:38:46.479Z,1568
2017-09-05T06:39:47.908Z,1620
2017-09-05T06:40:49.309Z,1656
2017-09-05T06:41:50.701Z,1700
2017-09-05T06:42:52.100Z,1760
2017-09-05T06:43:53.505Z,1804
2017-09-05T06:44:54.894Z,1848
2017-09-05T06:45:56.288Z,1872
2017-09-05T06:46:57.683Z,1888
2017-09-05T06:47:59.077Z,1900
2017-09-05T06:49:00.473Z,1920
2017-09-05T06:50:01.871Z,1944
2017-09-05T06:51:03.269Z,1984
2017-09-05T06:52:04.663Z,2064
2017-09-05T06:53:06.056Z,2104
2017-09-05T06:54:07.450Z,2148
2017-09-05T06:55:08.851Z,2164
2017-09-05T06:56:10.243Z,2228
2017-09-05T06:57:11.644Z,2300
2017-09-05T06:58:13.044Z,2372
2017-09-05T06:59:14.441Z,2428
2017-09-05T07:00:15.839Z,2480
2017-09-05T07:01:17.238Z,2524
2017-09-05T07:02:18.637Z,2548
2017-09-05T07:03:20.037Z,2572
2017-09-05T07:04:21.436Z,2608
2017-09-05T07:05:22.835Z,2632
2017-09-05T07:06:24.231Z,2648
2017-09-05T07:07:25.629Z,2680
2017-09-05T07:08:27.029Z,2732
2017-09-05T07:09:28.423Z,2748
2017-09-05T07:10:29.822Z,2792
2017-09-05T07:11:31.219Z,2848
2017-09-05T07:12:32.620Z,2920
2017-09-05T07:13:34.021Z,2964
2017-09-05T07:14:35.413Z,2976
2017-09-05T07:15:36.815Z,2928
2017-09-05T07:16:38.212Z,2884
2017-09-05T07:17:39.612Z,2860
2017-09-05T07:18:41.011Z,2864
2017-09-05T07:19:42.416Z,2868
2017-09-05T07:20:43.814Z,2924
2017-09-05T07:21:45.212Z,2952
2017-09-05T07:22:46.610Z,2944
2017-09-05T07:23:48.009Z,2952
2017-09-05T07:24:49.407Z,3000
2017-09-05T07:25:50.807Z,2984
2017-09-05T07:26:52.203Z,2956
2017-09-05T07:27:53.599Z,2940
2017-09-05T07:28:54.995Z,2920
2017-09-05T07:29:56.394Z,2932
2017-09-05T07:30:57.795Z,3000
2017-09-05T07:31:59.193Z,3008
2017-09-05T07:33:00.597Z,2968
2017-09-05T07:34:01.993Z,2940
2017-09-05T07:35:03.395Z,2868
2017-09-05T07:36:04.788Z,2856
2017-09-05T07:37:06.188Z,2812
2017-09-05T07:38:07.587Z,2740
2017-09-05T07:39:08.986Z,2712
2017-09-05T07:40:10.385Z,2680
2017-09-05T07:41:11.785Z,2664
2017-09-05T07:42:13.185Z,2596
2017-09-05T07:43:14.582Z,2572
2017-09-05T07:44:15.980Z,2580
2017-09-05T07:45:17.376Z,2596
2017-09-05T07:46:18.779Z,2572
2017-09-05T07:47:20.201Z,2488
2017-09-05T07:48:21.602Z,2372
2017-09-05T07:49:22.996Z,2360
2017-09-05T07:50:24.394Z,2408
2017-09-05T07:51:25.793Z,2352
2017-09-05T07:52:27.190Z,2352
2017-09-05T07:53:28.588Z,2344
2017-09-05T07:54:29.991Z,2348
2017-09-05T07:55:31.403Z,2312
2017-09-05T07:56:32.802Z,2272
2017-09-05T07:57:34.200Z,2040
2017-09-05T07:58:35.598Z,1960
2017-09-05T07:59:36.997Z,1880
2017-09-05T08:00:38.395Z,1832
2017-09-05T08:01:39.793Z,1836
2017-09-05T08:02:41.192Z,1856
2017-09-05T08:03:42.593Z,1892
2017-09-05T08:04:43.983Z,1916
2017-09-05T08:05:45.377Z,1916
2017-09-05T08:06:46.774Z,1952
2017-09-05T08:07:48.171Z,1876
2017-09-05T08:08:49.572Z,1824
2017-09-05T08:09:50.968Z,1864
2017-09-05T08:10:52.363Z,2016
2017-09-05T08:11:53.759Z,2004
2017-09-05T08:12:55.156Z,2044
2017-09-05T08:13:56.550Z,2092
2017-09-05T08:14:57.950Z,2136
2017-09-05T08:15:59.349Z,2128
2017-09-05T08:17:00.750Z,2284
2017-09-05T08:18:02.148Z,2348
2017-09-05T08:19:03.545Z,2412
2017-09-05T08:20:04.945Z,2460
2017-09-05T08:21:06.341Z,2504
2017-09-05T08:22:07.743Z,2564
2017-09-05T08:23:09.142Z,2636
2017-09-05T08:24:10.543Z,2708
2017-09-05T08:25:11.938Z,2784
2017-09-05T08:26:13.338Z,2856
2017-09-05T08:27:14.735Z,2936
2017-09-05T08:28:16.137Z,3012
2017-09-05T08:29:17.542Z,3076
2017-09-05T08:30:18.943Z,3144
2017-09-05T08:31:20.345Z,3200
2017-09-05T08:32:21.742Z,3264
2017-09-05T08:33:23.139Z,3312
2017-09-05T08:34:24.538Z,3352
2017-09-05T08:35:25.940Z,3372
2017-09-05T08:36:27.338Z,3320
2017-09-05T08:37:28.733Z,3292
2017-09-05T08:38:30.133Z,3240
2017-09-05T08:39:31.532Z,3328
2017-09-05T08:40:32.931Z,3408
2017-09-05T08:41:34.332Z,3496
2017-09-05T08:42:35.730Z,3556
2017-09-05T08:43:37.139Z,3580
2017-09-05T08:44:38.535Z,3596
2017-09-05T08:45:39.939Z,3572
2017-09-05T08:46:41.359Z,3668
2017-09-05T08:47:42.832Z,3756
2017-09-05T08:48:44.232Z,3808
2017-09-05T08:49:45.638Z,3848
2017-09-05T08:50:47.028Z,3896
2017-09-05T08:51:48.429Z,3944
2017-09-05T08:52:49.834Z,4024
2017-09-05T08:53:51.232Z,4084
2017-09-05T08:54:52.629Z,4148
2017-09-05T08:55:54.030Z,4236
2017-09-05T08:56:55.431Z,4300
2017-09-05T08:57:56.829Z,4548
2017-09-05T08:58:58.234Z,5032
2017-09-05T08:59:59.634Z,5244
2017-09-05T09:01:01.033Z,5356
2017-09-05T09:02:02.430Z,5444
2017-09-05T09:03:03.830Z,5540
2017-09-05T09:04:05.231Z,5588
2017-09-05T09:05:06.630Z,5684
2017-09-05T09:06:08.031Z,5708
2017-09-05T09:07:09.431Z,5720
2017-09-05T09:08:10.831Z,5836
2017-09-05T09:09:12.229Z,5976
2017-09-05T09:10:13.630Z,6168
2017-09-05T09:11:15.033Z,6456
2017-09-05T09:12:16.436Z,6688
2017-09-05T09:13:17.838Z,7076
2017-09-05T09:14:19.239Z,7456
2017-09-05T09:15:20.642Z,7480
2017-09-05T09:16:22.040Z,7612
2017-09-05T09:17:23.441Z,7568
2017-09-05T09:18:24.843Z,7500
2017-09-05T09:19:26.245Z,7768
2017-09-05T09:20:27.648Z,7440
2017-09-05T09:21:29.049Z,7344
2017-09-05T09:22:30.449Z,7616
2017-09-05T09:23:31.849Z,7996
2017-09-05T09:24:33.251Z,8232
2017-09-05T09:25:34.653Z,7768
2017-09-05T09:26:36.056Z,3904
2017-09-05T09:27:37.455Z,8504
2017-09-05T09:28:38.862Z,8148
2017-09-05T09:29:40.264Z,7128
2017-09-05T09:30:41.663Z,5104
2017-09-05T09:31:43.065Z,8240
2017-09-05T09:32:44.508Z,7064
2017-09-05T09:33:45.909Z,7512
2017-09-05T09:34:47.360Z,8032
2017-09-05T09:35:48.772Z,8328
2017-09-05T09:36:50.179Z,8168
2017-09-05T09:37:51.576Z,7860
2017-09-05T09:38:52.986Z,7992
2017-09-05T09:39:54.388Z,8464
2017-09-05T09:40:55.790Z,9244
2017-09-05T09:41:57.193Z,10236
2017-09-05T09:42:58.597Z,8256
2017-09-05T09:43:59.996Z,7648
2017-09-05T09:45:01.397Z,4856
2017-09-05T09:46:02.798Z,3660
2017-09-05T09:47:04.203Z,3520
2017-09-05T09:48:05.601Z,3788
2017-09-05T09:49:07.005Z,4164
2017-09-05T09:50:08.410Z,4360
2017-09-05T09:51:09.809Z,4440
2017-09-05T09:52:11.211Z,4292
2017-09-05T09:53:12.611Z,3988
2017-09-05T09:54:14.013Z,3712
2017-09-05T09:55:15.411Z,3560
2017-09-05T09:56:16.814Z,3324
2017-09-05T09:57:18.221Z,3192
2017-09-05T09:58:19.622Z,3012
2017-09-05T09:59:21.023Z,2880
2017-09-05T10:00:22.424Z,2924
2017-09-05T10:01:23.828Z,3144
2017-09-05T10:02:25.230Z,3460
2017-09-05T10:03:26.631Z,3944
2017-09-05T10:04:28.036Z,4388
2017-09-05T10:05:29.435Z,4704
2017-09-05T10:06:30.834Z,5132
2017-09-05T10:07:32.232Z,5536
2017-09-05T10:08:33.647Z,5944
2017-09-05T10:09:35.050Z,6376
2017-09-05T10:10:36.454Z,7192
2017-09-05T10:11:37.857Z,7976
2017-09-05T10:12:39.255Z,9896
2017-09-05T10:13:40.656Z,10804
2017-09-05T10:14:42.061Z,10740
2017-09-05T10:15:43.466Z,11544
2017-09-05T10:16:44.864Z,10860
2017-09-05T10:17:46.273Z,11072
2017-09-05T10:18:47.673Z,11452
2017-09-05T10:19:49.075Z,11708
2017-09-05T10:20:50.478Z,10496
2017-09-05T10:21:51.880Z,17920
2017-09-05T10:22:53.282Z,12604
2017-09-05T10:23:54.692Z,10108
2017-09-05T10:24:56.086Z,22848
2017-09-05T10:25:57.492Z,22848
2017-09-05T10:26:58.892Z,9084
2017-09-05T10:28:00.297Z,9172
2017-09-05T10:29:01.696Z,10560
2017-09-05T10:30:03.100Z,23264
2017-09-05T10:31:04.498Z,8552
2017-09-05T10:32:05.900Z,6344
2017-09-05T10:33:07.306Z,5704
2017-09-05T10:34:08.702Z,5284
2017-09-05T10:35:10.103Z,4680
2017-09-05T10:36:11.504Z,4020
2017-09-05T10:37:12.907Z,3776
2017-09-05T10:38:14.309Z,3876
2017-09-05T10:39:15.712Z,4280
2017-09-05T10:40:17.115Z,4844
2017-09-05T10:41:18.520Z,4120
2017-09-05T10:42:19.921Z,3624
2017-09-05T10:43:21.321Z,3548
2017-09-05T10:44:22.724Z,3648
2017-09-05T10:45:24.130Z,3840
2017-09-05T10:46:25.532Z,3912
2017-09-05T10:47:26.931Z,4296
2017-09-05T10:48:28.329Z,4688
2017-09-05T10:49:29.731Z,5024
2017-09-05T10:50:31.130Z,5252
2017-09-05T10:51:32.534Z,5472
2017-09-05T10:52:33.936Z,5704
2017-09-05T10:53:35.338Z,6264
2017-09-05T10:54:36.745Z,6960
2017-09-05T10:55:38.137Z,8168
2017-09-05T10:56:39.498Z,20000
2017-09-05T10:57:40.899Z,13500
2017-09-05T10:58:42.302Z,19840
2017-09-05T10:59:43.708Z,25280
2017-09-05T11:00:45.110Z,22656
2017-09-05T11:01:46.517Z,12200
2017-09-05T11:02:47.916Z,12448
2017-09-05T11:03:49.315Z,11452
2017-09-05T11:04:50.718Z,12164
2017-09-05T11:05:52.118Z,15344
2017-09-05T11:06:53.551Z,12636
2017-09-05T11:07:54.955Z,11496
2017-09-05T11:08:56.361Z,10036
2017-09-05T11:09:57.755Z,8332
2017-09-05T11:10:59.157Z,6632
2017-09-05T11:12:00.560Z,6156
2017-09-05T11:13:01.963Z,6052
2017-09-05T11:14:03.364Z,5884
2017-09-05T11:15:04.768Z,6136
2017-09-05T11:16:06.168Z,6516
2017-09-05T11:17:07.578Z,11140
2017-09-05T11:18:08.981Z,9332
2017-09-05T11:19:10.380Z,9020
2017-09-05T11:20:11.782Z,6164
2017-09-05T11:21:13.184Z,4996
2017-09-05T11:22:14.588Z,4372
2017-09-05T11:23:15.998Z,3744
2017-09-05T11:24:17.390Z,3348
2017-09-05T11:25:18.792Z,3116
2017-09-05T11:26:20.202Z,3036
2017-09-05T11:27:21.604Z,2884
2017-09-05T11:28:23.008Z,2896
2017-09-05T11:29:24.408Z,3028
2017-09-05T11:30:25.812Z,3256
2017-09-05T11:31:27.214Z,3344
2017-09-05T11:32:28.616Z,3332
2017-09-05T11:33:30.013Z,3464
2017-09-05T11:34:31.413Z,3656
2017-09-05T11:35:32.815Z,3844
2017-09-05T11:36:34.219Z,3952
2017-09-05T11:37:35.619Z,3924
2017-09-05T11:38:37.023Z,4072
2017-09-05T11:39:38.424Z,3792
2017-09-05T11:40:39.785Z,3612
2017-09-05T11:41:41.186Z,3532
2017-09-05T11:42:42.589Z,3576
2017-09-05T11:43:43.995Z,3988
2017-09-05T11:44:45.395Z,4420
2017-09-05T11:45:46.795Z,5016
2017-09-05T11:46:48.194Z,4568
2017-09-05T11:47:49.597Z,4172
2017-09-05T11:48:50.999Z,4112
2017-09-05T11:49:52.395Z,4028
2017-09-05T11:50:53.798Z,3720
2017-09-05T11:51:55.201Z,3212
2017-09-05T11:52:56.602Z,2500
2017-09-05T11:53:58.006Z,2028
2017-09-05T11:54:59.401Z,1916
2017-09-05T11:56:00.801Z,2196
2017-09-05T11:57:02.203Z,2676
2017-09-05T11:58:03.606Z,3236
2017-09-05T11:59:05.007Z,3652
2017-09-05T12:00:06.404Z,4204
2017-09-05T12:01:07.804Z,4712
2017-09-05T12:02:09.203Z,5292
2017-09-05T12:03:10.604Z,6360
2017-09-05T12:04:12.004Z,7016
2017-09-05T12:05:13.407Z,8352
2017-09-05T12:06:14.808Z,9064
2017-09-05T12:07:16.234Z,8144
2017-09-05T12:08:17.635Z,7160
2017-09-05T12:09:19.047Z,6984
2017-09-05T12:10:20.458Z,7724
2017-09-05T12:11:21.861Z,6820
2017-09-05T12:12:23.267Z,5988
2017-09-05T12:13:24.665Z,5308
2017-09-05T12:14:26.062Z,4452
2017-09-05T12:15:27.464Z,4020
2017-09-05T12:16:28.862Z,4176
2017-09-05T12:17:30.264Z,5280
2017-09-05T12:18:31.667Z,5864
2017-09-05T12:19:33.067Z,7576
2017-09-05T12:20:34.472Z,27296
2017-09-05T12:21:35.872Z,10856
2017-09-05T12:22:37.274Z,9808
2017-09-05T12:23:38.674Z,9116
2017-09-05T12:24:40.075Z,23776
2017-09-05T12:25:41.477Z,8356
2017-09-05T12:26:42.879Z,8984
2017-09-05T12:27:44.283Z,8384
2017-09-05T12:28:45.680Z,7164
2017-09-05T12:29:47.080Z,7128
2017-09-05T12:30:48.480Z,6776
2017-09-05T12:31:49.881Z,6436
2017-09-05T12:32:51.282Z,5748
2017-09-05T12:33:52.685Z,5768
2017-09-05T12:34:54.088Z,5788
2017-09-05T12:35:55.488Z,5544
2017-09-05T12:36:56.885Z,5468
2017-09-05T12:37:58.286Z,5676
2017-09-05T12:38:59.689Z,5440
2017-09-05T12:40:01.093Z,5280
2017-09-05T12:41:02.491Z,5452
2017-09-05T12:42:03.898Z,6024
2017-09-05T12:43:05.295Z,5764
2017-09-05T12:44:06.696Z,6396
2017-09-05T12:45:08.096Z,8320
2017-09-05T12:46:09.496Z,8208
2017-09-05T12:47:10.899Z,8628
2017-09-05T12:48:12.303Z,9632
2017-09-05T12:49:13.709Z,6828
2017-09-05T12:50:15.110Z,6368
2017-09-05T12:51:16.507Z,5960
2017-09-05T12:52:17.906Z,5720
2017-09-05T12:53:19.306Z,5220
2017-09-05T12:54:20.720Z,5436
2017-09-05T12:55:22.116Z,5316
2017-09-05T12:56:23.519Z,5612
2017-09-05T12:57:24.915Z,6168
2017-09-05T12:58:26.318Z,6856
2017-09-05T12:59:27.717Z,8864
2017-09-05T13:00:29.118Z,8180
2017-09-05T13:01:30.519Z,7944
2017-09-05T13:02:31.925Z,10312
2017-09-05T13:03:33.336Z,12804
2017-09-05T13:04:34.734Z,6780
2017-09-05T13:05:36.135Z,6572
2017-09-05T13:06:37.533Z,6356
2017-09-05T13:07:38.935Z,6752
2017-09-05T13:08:40.336Z,6896
2017-09-05T13:09:41.740Z,6544
2017-09-05T13:10:43.143Z,6944
2017-09-05T13:11:44.540Z,7024
2017-09-05T13:12:45.944Z,7296
2017-09-05T13:13:47.343Z,8452
2017-09-05T13:14:48.747Z,8628
2017-09-05T13:15:50.147Z,7508
2017-09-05T13:16:51.549Z,6872
2017-09-05T13:17:52.952Z,6292
2017-09-05T13:18:54.352Z,5772
2017-09-05T13:19:55.752Z,5840
2017-09-05T13:20:57.153Z,6488
2017-09-05T13:21:58.553Z,7148
2017-09-05T13:22:59.953Z,7828
2017-09-05T13:24:01.356Z,8224
2017-09-05T13:25:02.761Z,8440
2017-09-05T13:26:04.156Z,8684
2017-09-05T13:27:05.559Z,8672
2017-09-05T13:28:06.959Z,17728
2017-09-05T13:29:08.363Z,8916
2017-09-05T13:30:09.763Z,8148
2017-09-05T13:31:11.167Z,7116
2017-09-05T13:32:12.568Z,6584
2017-09-05T13:33:13.969Z,6040
2017-09-05T13:34:15.404Z,5496
2017-09-05T13:35:16.768Z,4684
2017-09-05T13:36:18.172Z,4348
2017-09-05T13:37:19.572Z,4564
2017-09-05T13:38:20.973Z,4800
2017-09-05T13:39:22.377Z,4772
2017-09-05T13:40:23.777Z,4496
2017-09-05T13:41:25.176Z,4044
2017-09-05T13:42:26.577Z,3576
2017-09-05T13:43:27.980Z,2964
2017-09-05T13:44:29.383Z,2312
2017-09-05T13:45:30.802Z,1844
2017-09-05T13:46:32.202Z,1512
2017-09-05T13:47:33.599Z,1272
2017-09-05T13:48:34.999Z,1112
2017-09-05T13:49:36.399Z,972
2017-09-05T13:50:37.820Z,888
2017-09-05T13:51:39.213Z,860
2017-09-05T13:52:40.615Z,880
2017-09-05T13:53:42.015Z,884
2017-09-05T13:54:43.412Z,960
2017-09-05T13:55:44.813Z,1120
2017-09-05T13:56:46.213Z,1348
2017-09-05T13:57:47.614Z,1576
2017-09-05T13:58:49.013Z,1836
2017-09-05T13:59:50.416Z,2072
2017-09-05T14:00:51.816Z,2280
2017-09-05T14:01:53.217Z,2480
2017-09-05T14:02:54.619Z,2652
2017-09-05T14:03:56.019Z,2844
2017-09-05T14:04:57.420Z,2948
2017-09-05T14:05:58.820Z,3084
2017-09-05T14:07:00.221Z,3112
2017-09-05T14:08:01.628Z,3220
2017-09-05T14:09:03.022Z,3440